createdAt,value
2023-05-13T00:00:36.022Z,59.8
2023-05-13T00:02:19.763Z,59.8
2023-05-13T00:04:03.457Z,59.8
2023-05-13T00:05:47.164Z,59.8
2023-05-13T00:07:30.924Z,59.8
2023-05-13T00:09:14.559Z,59.8
2023-05-13T00:10:58.277Z,59.8
2023-05-13T00:12:41.968Z,59.9
2023-05-13T00:14:25.709Z,59.8
2023-05-13T00:16:09.510Z,59.8
2023-05-13T00:17:53.096Z,59.8
2023-05-13T00:19:36.763Z,59.7
2023-05-13T00:21:20.542Z,59.8
2023-05-13T00:23:04.196Z,59.8
2023-05-13T00:24:47.879Z,59.8
2023-05-13T00:26:31.567Z,59.8
2023-05-13T00:28:15.289Z,59.8
2023-05-13T00:29:58.985Z,59.8
2023-05-13T00:31:42.671Z,59.8
2023-05-13T00:33:26.408Z,59.8
2023-05-13T00:35:10.171Z,59.8
2023-05-13T00:36:53.849Z,59.8
2023-05-13T00:38:37.483Z,59.8
2023-05-13T00:40:21.199Z,59.8
2023-05-13T00:42:04.906Z,59.8
2023-05-13T00:43:48.659Z,59.7
2023-05-13T00:45:32.292Z,59.7
2023-05-13T00:47:15.986Z,59.7
2023-05-13T00:48:59.699Z,59.7
2023-05-13T00:50:43.422Z,59.7
2023-05-13T00:52:27.108Z,59.7
2023-05-13T00:54:10.800Z,59.7
2023-05-13T00:55:54.529Z,59.7
2023-05-13T00:57:38.219Z,59.7
2023-05-13T00:59:21.933Z,59.7
2023-05-13T01:01:05.653Z,59.7
2023-05-13T01:02:49.308Z,59.7
2023-05-13T01:04:33.033Z,59.7
2023-05-13T01:06:16.718Z,59.7
2023-05-13T01:08:00.421Z,59.7
2023-05-13T01:09:44.119Z,59.7
2023-05-13T01:11:27.830Z,59.7
2023-05-13T01:13:11.637Z,59.8
2023-05-13T01:14:55.216Z,59.7
2023-05-13T01:16:39.016Z,59.7
2023-05-13T01:18:22.623Z,59.7
2023-05-13T01:20:06.322Z,59.7
2023-05-13T01:21:50.030Z,59.8
2023-05-13T01:23:33.736Z,59.7
2023-05-13T01:25:17.450Z,59.7
2023-05-13T01:27:01.139Z,59.8
2023-05-13T01:28:44.933Z,59.7
2023-05-13T01:30:28.551Z,59.8
2023-05-13T01:32:12.321Z,59.8
2023-05-13T01:33:55.990Z,59.8
2023-05-13T01:35:39.661Z,59.8
2023-05-13T01:37:23.419Z,59.7
2023-05-13T01:39:07.067Z,59.7
2023-05-13T01:40:50.771Z,59.7
2023-05-13T01:42:34.512Z,59.7
2023-05-13T01:44:18.153Z,59.7
2023-05-13T01:46:01.958Z,59.7
2023-05-13T01:47:45.565Z,59.7
2023-05-13T01:49:29.382Z,59.7
2023-05-13T01:51:12.964Z,59.6
2023-05-13T01:52:56.673Z,59.7
2023-05-13T01:54:40.385Z,59.7
2023-05-13T01:56:24.109Z,59.7
2023-05-13T01:58:07.773Z,59.7
2023-05-13T01:59:51.589Z,59.6
2023-05-13T02:01:35.191Z,59.6
2023-05-13T02:03:18.922Z,59.7
2023-05-13T02:05:02.596Z,59.6
2023-05-13T02:06:46.314Z,59.6
2023-05-13T02:08:30.023Z,59.6
2023-05-13T02:10:13.677Z,59.6
2023-05-13T02:11:57.397Z,59.6
2023-05-13T02:13:41.073Z,59.6
2023-05-13T02:15:24.794Z,59.6
2023-05-13T02:17:08.510Z,59.6
2023-05-13T02:18:52.252Z,59.6
2023-05-13T02:20:35.912Z,59.6
2023-05-13T02:22:19.588Z,59.5
2023-05-13T02:24:03.310Z,59.5
2023-05-13T02:25:47.007Z,59.5
2023-05-13T02:27:30.770Z,59.5
2023-05-13T02:29:14.418Z,59.5
2023-05-13T02:30:58.108Z,59.5
2023-05-13T02:32:41.808Z,59.5
2023-05-13T02:34:25.513Z,59.4
2023-05-13T02:36:09.253Z,59.4
2023-05-13T02:37:52.945Z,59.4
2023-05-13T02:39:36.625Z,59.4
2023-05-13T02:41:20.395Z,59.4
2023-05-13T02:43:04.028Z,59.5
2023-05-13T02:44:47.728Z,59.4
2023-05-13T02:46:31.425Z,59.4
2023-05-13T02:48:15.145Z,59.4
2023-05-13T02:49:58.830Z,59.4
2023-05-13T02:51:42.569Z,59.4
2023-05-13T02:53:26.219Z,59.4
2023-05-13T02:55:09.945Z,59.4
2023-05-13T02:56:53.638Z,59.4
2023-05-13T02:58:37.346Z,59.4
2023-05-13T03:00:21.049Z,59.4
2023-05-13T03:02:04.769Z,59.3
2023-05-13T03:03:48.552Z,59.3
2023-05-13T03:05:32.139Z,59.4
2023-05-13T03:07:15.866Z,59.3
2023-05-13T03:08:59.642Z,59.3
2023-05-13T03:10:43.258Z,59.3
2023-05-13T03:12:26.948Z,59.3
2023-05-13T03:14:10.662Z,59.3
2023-05-13T03:15:54.401Z,59.3
2023-05-13T03:17:38.066Z,59.3
2023-05-13T03:19:21.753Z,59.3
2023-05-13T03:21:05.453Z,59.2
2023-05-13T03:22:49.274Z,59.3
2023-05-13T03:24:32.921Z,59.3
2023-05-13T03:26:16.601Z,59.3
2023-05-13T03:28:00.333Z,59.3
2023-05-13T03:29:43.966Z,59.2
2023-05-13T03:31:27.668Z,59.2
2023-05-13T03:33:11.404Z,59.2
2023-05-13T03:34:55.069Z,59.2
2023-05-13T03:36:38.863Z,59.2
2023-05-13T03:38:22.474Z,59.2
2023-05-13T03:40:06.172Z,59.2
2023-05-13T03:41:49.925Z,59.2
2023-05-13T03:43:33.672Z,59.2
2023-05-13T03:45:17.273Z,59.2
2023-05-13T03:47:00.977Z,59.2
2023-05-13T03:48:44.672Z,59.2
2023-05-13T03:50:28.378Z,59.3
2023-05-13T03:52:12.102Z,59.2
2023-05-13T03:53:55.803Z,59.2
2023-05-13T03:55:39.518Z,59.2
2023-05-13T03:57:23.205Z,59.2
2023-05-13T03:59:06.907Z,59.2
2023-05-13T04:00:50.631Z,59.2
2023-05-13T04:02:34.312Z,59.2
2023-05-13T04:04:18.010Z,59.2
2023-05-13T04:06:01.729Z,59.2
2023-05-13T04:07:45.431Z,59.1
2023-05-13T04:09:29.115Z,59.1
2023-05-13T04:11:12.851Z,59.1
2023-05-13T04:12:56.503Z,59.1
2023-05-13T04:14:40.231Z,59.1
2023-05-13T04:16:23.973Z,59.1
2023-05-13T04:18:07.658Z,59.1
2023-05-13T04:19:51.345Z,59.1
2023-05-13T04:21:35.101Z,59.1
2023-05-13T04:23:18.784Z,59.1
2023-05-13T04:25:02.458Z,59.1
2023-05-13T04:26:46.137Z,59.1
2023-05-13T04:28:29.847Z,59.1
2023-05-13T04:30:13.535Z,59.1
2023-05-13T04:31:57.232Z,59.1
2023-05-13T04:33:40.955Z,59.1
2023-05-13T04:35:24.678Z,59.1
2023-05-13T04:37:08.334Z,59.1
2023-05-13T04:38:52.082Z,59.1
2023-05-13T04:40:35.743Z,59.1
2023-05-13T04:42:19.497Z,59.1
2023-05-13T04:44:03.130Z,59.1
2023-05-13T04:45:46.866Z,59
2023-05-13T04:47:30.552Z,59.1
2023-05-13T04:49:14.245Z,59
2023-05-13T04:50:58.024Z,59.1
2023-05-13T04:52:41.666Z,59
2023-05-13T04:54:25.339Z,59
2023-05-13T04:56:09.190Z,59
2023-05-13T04:57:52.764Z,59
2023-05-13T04:59:36.447Z,59.1
2023-05-13T05:01:20.160Z,59
2023-05-13T05:03:03.903Z,59
2023-05-13T05:04:47.563Z,59
2023-05-13T05:06:31.281Z,59
2023-05-13T05:08:15.058Z,59
2023-05-13T05:09:58.675Z,59
2023-05-13T05:11:42.471Z,59
2023-05-13T05:13:26.087Z,59
2023-05-13T05:15:09.792Z,59
2023-05-13T05:16:53.482Z,59
2023-05-13T05:18:37.179Z,59
2023-05-13T05:20:20.891Z,59
2023-05-13T05:22:04.584Z,59
2023-05-13T05:23:48.298Z,59
2023-05-13T05:25:32.027Z,58.9
2023-05-13T05:27:15.677Z,58.9
2023-05-13T05:28:59.383Z,58.9
2023-05-13T05:30:43.096Z,58.9
2023-05-13T05:32:26.810Z,58.9
2023-05-13T05:34:10.654Z,58.9
2023-05-13T05:35:54.240Z,59
2023-05-13T05:37:37.904Z,58.9
2023-05-13T05:39:21.628Z,58.9
2023-05-13T05:41:05.332Z,58.9
2023-05-13T05:42:49.030Z,58.9
2023-05-13T05:44:32.756Z,58.9
2023-05-13T05:46:16.470Z,58.9
2023-05-13T05:48:00.151Z,58.9
2023-05-13T05:49:43.861Z,58.9
2023-05-13T05:51:27.557Z,58.9
2023-05-13T05:53:11.231Z,58.8
2023-05-13T05:54:54.941Z,58.8
2023-05-13T05:56:38.723Z,58.8
2023-05-13T05:58:22.381Z,58.8
2023-05-13T06:00:06.052Z,58.8
2023-05-13T06:01:49.732Z,58.8
2023-05-13T06:03:33.462Z,58.8
2023-05-13T06:05:17.216Z,58.7
2023-05-13T06:07:00.863Z,58.7
2023-05-13T06:08:44.602Z,58.7
2023-05-13T06:10:28.294Z,58.7
2023-05-13T06:12:11.989Z,58.7
2023-05-13T06:13:55.713Z,58.7
2023-05-13T06:15:39.445Z,58.7
2023-05-13T06:17:23.135Z,58.6
2023-05-13T06:19:06.844Z,58.6
2023-05-13T06:20:50.460Z,58.6
2023-05-13T06:22:34.166Z,58.6
2023-05-13T06:24:17.901Z,58.6
2023-05-13T06:26:01.585Z,58.6
2023-05-13T06:27:45.255Z,58.6
2023-05-13T06:29:28.952Z,58.6
2023-05-13T06:31:12.667Z,58.6
2023-05-13T06:32:56.357Z,58.6
2023-05-13T06:34:40.064Z,58.5
2023-05-13T06:36:23.830Z,58.5
2023-05-13T06:38:07.499Z,58.5
2023-05-13T06:39:51.168Z,58.5
2023-05-13T06:41:34.888Z,58.5
2023-05-13T06:43:18.587Z,58.5
2023-05-13T06:45:02.270Z,58.5
2023-05-13T06:46:45.984Z,58.4
2023-05-13T06:48:29.719Z,58.4
2023-05-13T06:50:13.396Z,58.4
2023-05-13T06:51:57.076Z,58.4
2023-05-13T06:53:40.913Z,58.4
2023-05-13T06:55:24.501Z,58.4
2023-05-13T06:57:08.222Z,58.4
2023-05-13T06:58:51.948Z,58.3
2023-05-13T07:00:35.601Z,58.3
2023-05-13T07:02:19.333Z,58
2023-05-13T07:04:03.008Z,57.6
2023-05-13T07:05:46.741Z,57.4
2023-05-13T07:07:30.424Z,57.3
2023-05-13T07:09:14.104Z,57.2
2023-05-13T07:10:57.803Z,57.2
2023-05-13T07:12:41.515Z,57.1
2023-05-13T07:14:25.319Z,57.1
2023-05-13T07:16:08.952Z,57
2023-05-13T07:17:52.620Z,56.9
2023-05-13T07:19:36.286Z,56.9
2023-05-13T07:21:20.023Z,56.9
2023-05-13T07:23:03.750Z,56.9
2023-05-13T07:24:47.422Z,56.8
2023-05-13T07:26:31.173Z,57
2023-05-13T07:28:14.812Z,57.6
2023-05-13T07:29:58.542Z,58
2023-05-13T07:31:42.225Z,58.1
2023-05-13T07:33:26.088Z,57.9
2023-05-13T07:35:09.668Z,57.6
2023-05-13T07:36:53.342Z,57.4
2023-05-13T07:40:20.740Z,56.9
2023-05-13T07:42:04.456Z,57.1
2023-05-13T07:43:48.152Z,57.2
2023-05-13T07:45:31.907Z,57.4
2023-05-13T07:47:15.553Z,57.4
2023-05-13T07:48:59.278Z,57.5
2023-05-13T07:50:42.945Z,57.8
2023-05-13T07:52:26.660Z,58
2023-05-13T07:54:10.354Z,58.1
2023-05-13T07:55:54.050Z,58.5
2023-05-13T07:57:37.771Z,58.6
2023-05-13T07:59:21.472Z,58.7
2023-05-13T08:01:05.157Z,58.8
2023-05-13T08:02:48.896Z,59
2023-05-13T08:04:32.653Z,58.9
2023-05-13T08:06:16.268Z,58.8
2023-05-13T08:07:59.971Z,58.8
2023-05-13T08:09:43.691Z,59
2023-05-13T08:11:27.362Z,59.1
2023-05-13T08:13:11.076Z,59.1
2023-05-13T08:14:54.749Z,59.1
2023-05-13T08:16:38.525Z,59.1
2023-05-13T08:18:22.185Z,59
2023-05-13T08:20:05.938Z,58.8
2023-05-13T08:23:33.270Z,58.1
2023-05-13T08:25:16.969Z,58.1
2023-05-13T08:27:00.686Z,58.1
2023-05-13T08:28:44.404Z,58
2023-05-13T08:30:28.090Z,58.1
2023-05-13T08:32:11.780Z,57.7
2023-05-13T08:33:55.465Z,57.5
2023-05-13T08:35:39.244Z,57.6
2023-05-13T08:37:23.005Z,57.8
2023-05-13T08:39:06.606Z,57.7
2023-05-13T08:40:50.331Z,57.6
2023-05-13T08:42:33.991Z,57.6
2023-05-13T08:44:17.714Z,57.5
2023-05-13T08:46:01.425Z,57.6
2023-05-13T08:47:45.125Z,57.5
2023-05-13T08:49:28.923Z,57.5
2023-05-13T08:51:12.533Z,57.5
2023-05-13T08:52:56.244Z,57.5
2023-05-13T08:54:39.945Z,57.5
2023-05-13T08:56:23.654Z,57.2
2023-05-13T08:58:07.389Z,57.1
2023-05-13T08:59:51.060Z,57.1
2023-05-13T09:01:34.757Z,57.1
2023-05-13T09:03:18.504Z,57
2023-05-13T09:05:02.174Z,57
2023-05-13T09:06:45.942Z,56.9
2023-05-13T09:08:29.598Z,56.8
2023-05-13T09:10:13.279Z,56.8
2023-05-13T09:11:56.987Z,56.7
2023-05-13T09:13:40.746Z,56.6
2023-05-13T09:15:24.401Z,56.7
2023-05-13T09:17:08.111Z,56.7
2023-05-13T09:18:51.800Z,56.7
2023-05-13T09:20:35.572Z,56.7
2023-05-13T09:22:19.367Z,56.6
2023-05-13T09:24:03.106Z,56.6
2023-05-13T09:25:46.736Z,56.6
2023-05-13T09:27:30.416Z,56.5
2023-05-13T09:29:14.111Z,56.5
2023-05-13T09:30:57.885Z,56.5
2023-05-13T09:32:41.426Z,56.7
2023-05-13T09:34:25.168Z,56.7
2023-05-13T09:36:08.919Z,56.7
2023-05-13T09:37:52.655Z,56.7
2023-05-13T09:39:36.298Z,56.8
2023-05-13T09:41:20.125Z,56.8
2023-05-13T09:43:03.638Z,56.7
2023-05-13T09:44:47.328Z,56.6
2023-05-13T09:46:31.032Z,56.5
2023-05-13T09:48:14.836Z,56.4
2023-05-13T09:49:58.446Z,56.3
2023-05-13T09:51:42.182Z,56.1
2023-05-13T09:53:25.850Z,56
2023-05-13T09:55:09.545Z,55.9
2023-05-13T09:56:53.361Z,55.8
2023-05-13T09:58:36.951Z,55.6
2023-05-13T10:00:20.682Z,55.5
2023-05-13T10:02:04.364Z,55.4
2023-05-13T10:03:48.070Z,55.3
2023-05-13T10:05:31.765Z,55.1
2023-05-13T10:07:15.486Z,54.7
2023-05-13T10:08:59.188Z,54.4
2023-05-13T10:10:42.951Z,54.2
2023-05-13T10:12:26.600Z,54
2023-05-13T10:14:10.267Z,53.9
2023-05-13T10:15:54.140Z,53.8
2023-05-13T10:17:37.671Z,53.6
2023-05-13T10:19:21.367Z,53.4
2023-05-13T10:21:05.071Z,53.1
2023-05-13T10:22:48.796Z,52.9
2023-05-13T10:24:32.491Z,52.7
2023-05-13T10:26:16.185Z,52.6
2023-05-13T10:29:43.603Z,52
2023-05-13T10:31:27.285Z,51.8
2023-05-13T10:33:11.065Z,51.6
2023-05-13T10:34:54.703Z,51.5
2023-05-13T10:36:38.386Z,51.5
2023-05-13T10:38:22.099Z,51.4
2023-05-13T10:40:05.789Z,51.4
2023-05-13T10:41:49.506Z,51.4
2023-05-13T10:43:33.321Z,51.6
2023-05-13T10:45:16.918Z,51.7
2023-05-13T10:47:00.742Z,51.8
2023-05-13T10:48:44.286Z,51.9
2023-05-13T10:50:28.055Z,52.1
2023-05-13T10:52:11.708Z,52.5
2023-05-13T10:53:55.435Z,52.9
2023-05-13T10:55:39.102Z,53.3
2023-05-13T10:57:22.827Z,53.4
2023-05-13T10:59:06.520Z,53.6
2023-05-13T11:00:50.221Z,53.9
2023-05-13T11:02:33.912Z,54.2
2023-05-13T11:04:17.625Z,54.3
2023-05-13T11:06:01.387Z,54.4
2023-05-13T11:07:45.029Z,54.5
2023-05-13T11:09:28.730Z,54.6
2023-05-13T11:11:12.421Z,54.8
2023-05-13T11:12:56.127Z,54.6
2023-05-13T11:14:39.883Z,54.6
2023-05-13T11:16:23.517Z,54.5
2023-05-13T11:18:07.225Z,54.5
2023-05-13T11:19:50.919Z,54.6
2023-05-13T11:21:34.636Z,54.7
2023-05-13T11:23:18.392Z,54.7
2023-05-13T11:25:02.109Z,54.8
2023-05-13T11:26:45.726Z,54.7
2023-05-13T11:28:29.445Z,54.7
2023-05-13T11:30:13.145Z,54.7
2023-05-13T11:31:56.846Z,54.7
2023-05-13T11:33:40.542Z,54.7
2023-05-13T11:35:24.244Z,54.6
2023-05-13T11:37:07.966Z,54.7
2023-05-13T11:38:51.685Z,54.7
2023-05-13T11:40:35.366Z,54.6
2023-05-13T11:42:19.069Z,54.5
2023-05-13T11:44:02.768Z,54.5
2023-05-13T11:45:46.477Z,54.3
2023-05-13T11:47:30.218Z,54.3
2023-05-13T11:49:13.888Z,54.2
2023-05-13T11:52:41.302Z,54.1
2023-05-13T11:54:24.977Z,54
2023-05-13T11:56:08.699Z,53.9
2023-05-13T11:57:52.368Z,53.8
2023-05-13T11:59:36.082Z,53.8
2023-05-13T12:01:19.795Z,53.7
2023-05-13T12:03:03.469Z,53.6
2023-05-13T12:04:47.177Z,53.5
2023-05-13T12:06:30.885Z,53.5
2023-05-13T12:08:14.597Z,53.5
2023-05-13T12:09:58.252Z,53.5
2023-05-13T12:11:42.095Z,53.3
2023-05-13T12:13:25.760Z,53.3
2023-05-13T12:15:09.397Z,53.2
2023-05-13T12:16:53.068Z,53.1
2023-05-13T12:18:36.773Z,53.2
2023-05-13T12:20:20.464Z,53.1
2023-05-13T12:22:04.217Z,53.1
2023-05-13T12:23:47.873Z,53.1
2023-05-13T12:25:31.558Z,53
2023-05-13T12:27:15.267Z,52.9
2023-05-13T12:28:58.987Z,52.9
2023-05-13T12:30:42.666Z,52.9
2023-05-13T12:32:26.353Z,52.9
2023-05-13T12:34:10.056Z,52.8
2023-05-13T12:35:53.776Z,52.7
2023-05-13T12:37:37.472Z,52.5
2023-05-13T12:39:21.208Z,52.4
2023-05-13T12:41:04.916Z,52.5
2023-05-13T12:42:48.568Z,52.5
2023-05-13T12:44:32.276Z,52.5
2023-05-13T12:46:16.044Z,52.5
2023-05-13T12:47:59.731Z,52.7
2023-05-13T12:49:43.414Z,52.9
2023-05-13T12:51:27.104Z,53.1
2023-05-13T12:53:10.813Z,53.1
2023-05-13T12:54:54.555Z,53.4
2023-05-13T12:56:38.160Z,53.5
2023-05-13T12:58:22.038Z,53.5
2023-05-13T13:00:05.588Z,53.8
2023-05-13T13:01:49.309Z,54
2023-05-13T13:03:32.969Z,54.4
2023-05-13T13:05:16.670Z,54.6
2023-05-13T13:07:00.387Z,54.7
2023-05-13T13:08:44.078Z,54.8
2023-05-13T13:10:27.962Z,54.9
2023-05-13T13:12:11.530Z,54.9
2023-05-13T13:13:55.319Z,55
2023-05-13T13:15:38.998Z,55.1
2023-05-13T13:17:22.656Z,55.2
2023-05-13T13:19:06.414Z,55.4
2023-05-13T13:20:50.150Z,55.5
2023-05-13T13:22:33.846Z,55.6
2023-05-13T13:24:17.398Z,55.7
2023-05-13T13:26:01.192Z,55.8
2023-05-13T13:27:44.933Z,55.9
2023-05-13T13:29:28.519Z,56.1
2023-05-13T13:31:12.207Z,56.2
2023-05-13T13:32:55.915Z,56.3
2023-05-13T13:34:39.732Z,56.4
2023-05-13T13:36:23.396Z,56.5
2023-05-13T13:38:07.138Z,56.4
2023-05-13T13:39:50.893Z,56.4
2023-05-13T13:41:34.435Z,56.6
2023-05-13T13:43:18.154Z,56.6
2023-05-13T13:45:01.809Z,56.7
2023-05-13T13:46:45.588Z,56.9
2023-05-13T13:48:29.279Z,56.9
2023-05-13T13:50:12.981Z,56.9
2023-05-13T13:51:56.643Z,57
2023-05-13T13:53:40.379Z,57
2023-05-13T13:55:24.173Z,57.2
2023-05-13T13:57:07.784Z,57.2
2023-05-13T13:58:51.600Z,57.1
2023-05-13T14:00:35.290Z,57.1
2023-05-13T14:02:19.055Z,57.2
2023-05-13T14:04:02.575Z,57.1
2023-05-13T14:05:46.227Z,57
2023-05-13T14:07:29.925Z,56.9
2023-05-13T14:09:13.665Z,56.6
2023-05-13T14:10:57.355Z,56.2
2023-05-13T14:12:41.177Z,55.9
2023-05-13T14:14:24.821Z,55.7
2023-05-13T14:16:08.539Z,55.6
2023-05-13T14:17:52.222Z,55.6
2023-05-13T14:19:35.899Z,55.6
2023-05-13T14:21:19.577Z,55.7
2023-05-13T14:23:03.382Z,55.9
2023-05-13T14:24:47.039Z,56
2023-05-13T14:26:30.810Z,56.1
2023-05-13T14:28:14.407Z,56.1
2023-05-13T14:29:58.119Z,56.2
2023-05-13T14:31:41.823Z,56.2
2023-05-13T14:33:25.497Z,56.3
2023-05-13T14:35:09.227Z,56.3
2023-05-13T14:36:52.867Z,56.4
2023-05-13T14:38:36.579Z,56.4
2023-05-13T14:40:20.349Z,56.5
2023-05-13T14:42:03.994Z,56.4
2023-05-13T14:43:47.701Z,56.2
2023-05-13T14:45:31.382Z,56.2
2023-05-13T14:47:15.175Z,56.2
2023-05-13T14:48:58.776Z,56.3
2023-05-13T14:50:42.488Z,56.3
2023-05-13T14:52:26.204Z,56.4
2023-05-13T14:54:09.895Z,56.4
2023-05-13T14:55:53.597Z,56.3
2023-05-13T14:57:37.272Z,56.2
2023-05-13T14:59:20.998Z,56.2
2023-05-13T15:01:04.755Z,56.3
2023-05-13T15:02:48.474Z,56.5
2023-05-13T15:04:32.082Z,56.6
2023-05-13T15:06:15.767Z,56.8
2023-05-13T15:07:59.475Z,56.9
2023-05-13T15:09:43.258Z,56.9
2023-05-13T15:11:26.904Z,56.7
2023-05-13T15:13:10.635Z,56.7
2023-05-13T15:14:54.381Z,56.5
2023-05-13T15:16:37.969Z,56.6
2023-05-13T15:18:21.758Z,56.6
2023-05-13T15:20:05.380Z,56.5
2023-05-13T15:21:49.187Z,56.4
2023-05-13T15:23:32.776Z,56.4
2023-05-13T15:25:16.539Z,56.4
2023-05-13T15:27:00.251Z,56.3
2023-05-13T15:28:43.902Z,56.4
2023-05-13T15:30:27.747Z,56.6
2023-05-13T15:32:11.344Z,56.2
2023-05-13T15:33:55.057Z,56
2023-05-13T15:35:38.696Z,56
2023-05-13T15:37:22.450Z,56.1
2023-05-13T15:39:06.161Z,56.1
2023-05-13T15:40:49.807Z,56.1
2023-05-13T15:42:33.474Z,56.2
2023-05-13T15:44:17.207Z,56.2
2023-05-13T15:46:00.896Z,56.1
2023-05-13T15:47:44.604Z,56.1
2023-05-13T15:49:28.390Z,56.1
2023-05-13T15:51:12.008Z,56.1
2023-05-13T15:52:55.725Z,56.1
2023-05-13T15:54:39.423Z,56.2
2023-05-13T15:56:23.160Z,56.3
2023-05-13T15:58:06.841Z,56.3
2023-05-13T15:59:50.706Z,56.3
2023-05-13T16:01:34.323Z,56.4
2023-05-13T16:03:17.921Z,56.5
2023-05-13T16:05:01.615Z,56.5
2023-05-13T16:06:45.452Z,56.4
2023-05-13T16:08:29.153Z,56.4
2023-05-13T16:10:12.788Z,56.4
2023-05-13T16:11:56.507Z,56.4
2023-05-13T16:13:40.173Z,56.4
2023-05-13T16:15:23.892Z,56.2
2023-05-13T16:17:07.549Z,56.3
2023-05-13T16:18:51.315Z,56.2
2023-05-13T16:20:35.003Z,56.4
2023-05-13T16:22:18.661Z,56.7
2023-05-13T16:24:02.357Z,57
2023-05-13T16:25:46.044Z,57.4
2023-05-13T16:27:29.798Z,57.5
2023-05-13T16:29:13.468Z,57.7
2023-05-13T16:30:57.251Z,57.9
2023-05-13T16:32:40.936Z,58
2023-05-13T16:34:24.592Z,58.2
2023-05-13T16:36:08.406Z,58.3
2023-05-13T16:37:52.077Z,58.1
2023-05-13T16:39:35.698Z,58.1
2023-05-13T16:41:19.462Z,58.2
2023-05-13T16:43:03.091Z,58.1
2023-05-13T16:44:46.826Z,58.1
2023-05-13T16:46:30.714Z,58.1
2023-05-13T16:48:14.352Z,58.1
2023-05-13T16:49:58.102Z,58.1
2023-05-13T16:51:41.625Z,58.1
2023-05-13T16:53:25.293Z,58.2
2023-05-13T16:55:09.001Z,58.2
2023-05-13T16:56:52.707Z,58.3
2023-05-13T16:58:36.405Z,58.5
2023-05-13T17:00:20.121Z,58.5
2023-05-13T17:02:03.813Z,58.6
2023-05-13T17:03:47.515Z,58.6
2023-05-13T17:05:31.212Z,58.6
2023-05-13T17:07:14.925Z,58.6
2023-05-13T17:08:58.629Z,58.5
2023-05-13T17:10:42.322Z,58.4
2023-05-13T17:12:26.037Z,58.2
2023-05-13T17:14:09.741Z,58.1
2023-05-13T17:15:53.442Z,58.2
2023-05-13T17:17:37.149Z,58.3
2023-05-13T17:19:20.849Z,58.2
2023-05-13T17:21:04.580Z,57.9
2023-05-13T17:22:48.257Z,57.6
2023-05-13T17:24:31.972Z,57.5
2023-05-13T17:26:15.651Z,57.4
2023-05-13T17:27:59.372Z,57.3
2023-05-13T17:29:43.061Z,57.3
2023-05-13T17:31:26.770Z,57.4
2023-05-13T17:33:10.555Z,57.4
2023-05-13T17:34:54.188Z,57.5
2023-05-13T17:36:37.861Z,57.6
2023-05-13T17:38:21.580Z,57.6
2023-05-13T17:40:05.350Z,57.7
2023-05-13T17:41:49.085Z,57.8
2023-05-13T17:43:32.757Z,57.8
2023-05-13T17:45:16.406Z,57.8
2023-05-13T17:47:00.100Z,57.9
2023-05-13T17:48:43.819Z,57.9
2023-05-13T17:50:27.535Z,57.9
2023-05-13T17:52:11.224Z,58
2023-05-13T17:53:54.927Z,58.1
2023-05-13T17:55:38.619Z,58.1
2023-05-13T17:57:22.353Z,58.3
2023-05-13T17:59:06.031Z,58.3
2023-05-13T18:00:49.748Z,58.4
2023-05-13T18:02:33.436Z,58.4
2023-05-13T18:04:17.143Z,58.5
2023-05-13T18:06:00.835Z,58.5
2023-05-13T18:07:44.539Z,58.6
2023-05-13T18:09:28.261Z,58.6
2023-05-13T18:11:11.939Z,58.6
2023-05-13T18:12:55.640Z,58.8
2023-05-13T18:14:39.327Z,58.9
2023-05-13T18:16:23.038Z,58.9
2023-05-13T18:18:06.752Z,58.8
2023-05-13T18:19:50.425Z,58.9
2023-05-13T18:21:34.123Z,58.9
2023-05-13T18:23:17.828Z,59
2023-05-13T18:25:01.567Z,59.1
2023-05-13T18:26:45.231Z,59.1
2023-05-13T18:30:12.662Z,59.4
2023-05-13T18:31:56.343Z,59.5
2023-05-13T18:33:40.044Z,59.5
2023-05-13T18:35:23.736Z,59.6
2023-05-13T18:37:07.436Z,59.7
2023-05-13T18:38:51.179Z,60
2023-05-13T18:40:34.861Z,59.9
2023-05-13T18:42:18.546Z,60
2023-05-13T18:44:02.241Z,60
2023-05-13T18:45:45.976Z,60.2
2023-05-13T18:47:29.678Z,60.1
2023-05-13T18:49:13.350Z,60.2
2023-05-13T18:50:57.059Z,60.3
2023-05-13T18:52:40.760Z,60.3
2023-05-13T18:54:24.478Z,60.3
2023-05-13T18:56:08.186Z,60.3
2023-05-13T18:57:51.860Z,60.4
2023-05-13T18:59:35.565Z,60.5
2023-05-13T19:01:19.265Z,60.4
2023-05-13T19:03:02.966Z,60.4
2023-05-13T19:04:46.662Z,60.5
2023-05-13T19:06:30.360Z,60.5
2023-05-13T19:08:14.076Z,60.5
2023-05-13T19:11:41.468Z,60.6
2023-05-13T19:13:25.219Z,60.6
2023-05-13T19:15:08.876Z,60.7
2023-05-13T19:16:52.558Z,60.5
2023-05-13T19:18:36.273Z,60.7
2023-05-13T19:20:19.992Z,60.8
2023-05-13T19:22:03.689Z,60.7
2023-05-13T19:23:47.380Z,60.6
2023-05-13T19:25:31.101Z,60.7
2023-05-13T19:27:14.801Z,60.7
2023-05-13T19:28:58.495Z,60.9
2023-05-13T19:30:42.199Z,60.8
2023-05-13T19:32:25.904Z,60.8
2023-05-13T19:34:09.600Z,60.9
2023-05-13T19:35:53.351Z,61
2023-05-13T19:37:37.021Z,60.8
2023-05-13T19:39:20.715Z,60.9
2023-05-13T19:41:04.401Z,60.8
2023-05-13T19:42:48.120Z,60.9
2023-05-13T19:44:31.816Z,60.9
2023-05-13T19:46:15.514Z,60.8
2023-05-13T19:47:59.224Z,60.8
2023-05-13T19:49:42.950Z,60.9
2023-05-13T19:51:26.634Z,60.9
2023-05-13T19:53:10.338Z,60.8
2023-05-13T19:54:54.028Z,60.9
2023-05-13T19:56:37.729Z,61
2023-05-13T19:58:21.443Z,60.8
2023-05-13T20:00:05.133Z,60.7
2023-05-13T20:01:48.853Z,60.8
2023-05-13T20:03:32.552Z,60.8
2023-05-13T20:05:16.242Z,60.8
2023-05-13T20:06:59.932Z,60.6
2023-05-13T20:08:43.645Z,60.7
2023-05-13T20:10:27.360Z,60.8
2023-05-13T20:12:11.031Z,60.4
2023-05-13T20:13:54.720Z,60.5
2023-05-13T20:15:38.431Z,60.7
2023-05-13T20:17:22.174Z,60.5
2023-05-13T20:19:05.839Z,60.6
2023-05-13T20:20:49.552Z,60.7
2023-05-13T20:22:33.238Z,60.7
2023-05-13T20:24:16.958Z,60.6
2023-05-13T20:26:00.643Z,60.7
2023-05-13T20:27:44.361Z,60.5
2023-05-13T20:29:28.082Z,60.5
2023-05-13T20:31:11.772Z,60.5
2023-05-13T20:32:55.487Z,60.6
2023-05-13T20:34:39.178Z,60.6
2023-05-13T20:36:22.869Z,60.6
2023-05-13T20:38:06.594Z,60.7
2023-05-13T20:39:50.287Z,60.6
2023-05-13T20:41:33.998Z,60.5
2023-05-13T20:43:17.667Z,60.6
2023-05-13T20:45:01.385Z,60.5
2023-05-13T20:46:45.085Z,60.4
2023-05-13T20:48:28.781Z,60.5
2023-05-13T20:50:12.486Z,60.5
2023-05-13T20:51:56.177Z,60.6
2023-05-13T20:53:39.924Z,60.4
2023-05-13T20:55:23.580Z,60.5
2023-05-13T20:57:07.286Z,60.4
2023-05-13T20:58:51.000Z,60.5
2023-05-13T21:00:34.697Z,60.5
2023-05-13T21:02:18.396Z,60.5
2023-05-13T21:04:02.118Z,60.5
2023-05-13T21:05:45.833Z,60.5
2023-05-13T21:07:29.496Z,60.5
2023-05-13T21:09:13.218Z,60.4
2023-05-13T21:10:56.936Z,60.5
2023-05-13T21:12:40.623Z,60.5
2023-05-13T21:14:24.291Z,60.5
2023-05-13T21:16:08.010Z,60.4
2023-05-13T21:17:51.705Z,60.4
2023-05-13T21:19:35.430Z,60.3
2023-05-13T21:21:19.114Z,60.4
2023-05-13T21:23:02.816Z,60.2
2023-05-13T21:24:46.520Z,60.3
2023-05-13T21:26:30.209Z,60.4
2023-05-13T21:28:13.914Z,60.3
2023-05-13T21:29:57.625Z,60.3
2023-05-13T21:31:41.317Z,60.2
2023-05-13T21:33:24.988Z,60.2
2023-05-13T21:35:08.713Z,60.3
2023-05-13T21:36:52.413Z,60.2
2023-05-13T21:38:36.114Z,60.2
2023-05-13T21:40:19.830Z,60.3
2023-05-13T21:42:03.534Z,60.2
2023-05-13T21:43:47.236Z,60.3
2023-05-13T21:45:30.942Z,60.3
2023-05-13T21:47:14.656Z,60.2
2023-05-13T21:48:58.334Z,60.2
2023-05-13T21:50:42.048Z,60.3
2023-05-13T21:52:25.728Z,60.2
2023-05-13T21:54:09.431Z,60.2
2023-05-13T21:55:53.145Z,60.2
2023-05-13T21:57:36.977Z,60.2
2023-05-13T21:59:20.556Z,60.2
2023-05-13T22:01:04.278Z,60.2
2023-05-13T22:02:47.926Z,60.2
2023-05-13T22:04:31.645Z,60.2
2023-05-13T22:06:15.344Z,60.2
2023-05-13T22:07:59.068Z,60
2023-05-13T22:09:42.761Z,60
2023-05-13T22:11:26.458Z,60
2023-05-13T22:13:10.159Z,59.8
2023-05-13T22:14:53.864Z,59.7
2023-05-13T22:16:37.593Z,59.8
2023-05-13T22:18:21.261Z,59.8
2023-05-13T22:20:04.962Z,59.8
2023-05-13T22:21:48.719Z,59.8
2023-05-13T22:23:32.395Z,59.8
2023-05-13T22:25:16.102Z,59.8
2023-05-13T22:26:59.778Z,59.8
2023-05-13T22:28:43.473Z,59.8
2023-05-13T22:30:27.191Z,59.8
2023-05-13T22:32:10.887Z,59.8
2023-05-13T22:33:54.638Z,59.8
2023-05-13T22:35:38.284Z,59.7
2023-05-13T22:37:21.988Z,59.8
2023-05-13T22:39:05.689Z,59.8
2023-05-13T22:40:49.387Z,59.7
2023-05-13T22:42:33.117Z,59.8
2023-05-13T22:44:16.786Z,59.7
2023-05-13T22:46:00.476Z,59.8
2023-05-13T22:47:44.187Z,59.7
2023-05-13T22:49:27.886Z,59.7
2023-05-13T22:51:11.581Z,59.7
2023-05-13T22:52:55.278Z,59.7
2023-05-13T22:54:38.984Z,59.7
2023-05-13T22:56:22.708Z,59.6
2023-05-13T22:58:06.402Z,59.7
2023-05-13T22:59:50.091Z,59.7
2023-05-13T23:01:33.809Z,59.7
2023-05-13T23:03:17.509Z,59.7
2023-05-13T23:05:01.215Z,59.6
2023-05-13T23:06:44.948Z,59.7
2023-05-13T23:08:28.614Z,59.6
2023-05-13T23:10:12.313Z,59.6
2023-05-13T23:11:56.012Z,59.6
2023-05-13T23:13:39.711Z,59.6
2023-05-13T23:15:23.400Z,59.6
2023-05-13T23:17:07.114Z,59.6